Time;durP1;ratioP1;P1;durP2;ratioP2;P2;SDS_P1;SDS_P2;PMS_P1;PMS_P2;Temp;Humidity;BMP_temperature;BMP_pressure;BME280_temperature;BME280_humidity;BME280_pressure;Samples;Min_cycle;Max_cycle;Signal;HPM_P1;HPM_P2
2023/09/30 00:00:08;;;;;;;7.85;4.78;;;23.80;49.50;;;;;;352348;28;1579;-56
2023/09/30 00:00:18;;;;;;;6.32;4.57;;;23.80;49.60;;;;;;352281;28;1810;-55
2023/09/30 00:00:29;;;;;;;5.97;4.33;;;23.80;49.60;;;;;;352389;28;1019;-56
2023/09/30 00:00:40;;;;;;;6.50;4.50;;;23.80;49.60;;;;;;352455;28;986;-56
2023/09/30 00:00:50;;;;;;;7.40;4.45;;;23.70;49.60;;;;;;352417;28;904;-55
2023/09/30 00:01:01;;;;;;;7.70;4.70;;;23.70;49.60;;;;;;352466;28;864;-55
2023/09/30 00:01:14;;;;;;;8.05;4.53;;;23.70;49.60;;;;;;352237;28;1175;-55
2023/09/30 00:01:25;;;;;;;8.52;4.57;;;23.70;49.50;;;;;;352408;28;991;-55
2023/09/30 00:01:35;;;;;;;8.77;4.63;;;23.80;49.60;;;;;;352403;28;1027;-55
2023/09/30 00:01:46;;;;;;;8.57;4.70;;;23.70;49.50;;;;;;352404;28;1082;-55
2023/09/30 00:01:58;;;;;;;7.50;4.60;;;23.70;49.60;;;;;;352277;28;1166;-56
2023/09/30 00:02:11;;;;;;;7.78;4.80;;;23.70;49.60;;;;;;352441;28;836;-57
2023/09/30 00:02:21;;;;;;;8.52;4.70;;;23.70;49.60;;;;;;352345;28;1070;-56
2023/09/30 00:02:32;;;;;;;8.45;4.65;;;23.80;49.60;;;;;;352462;28;828;-55
2023/09/30 00:02:43;;;;;;;6.20;4.53;;;23.80;49.60;;;;;;352288;28;1079;-57
2023/09/30 00:02:54;;;;;;;6.17;4.70;;;23.80;49.70;;;;;;352439;28;947;-55
2023/09/30 00:03:04;;;;;;;6.63;4.88;;;23.70;49.70;;;;;;352420;28;1023;-55
2023/09/30 00:03:15;;;;;;;7.55;4.97;;;23.70;49.70;;;;;;352377;28;1075;-57
2023/09/30 00:03:26;;;;;;;7.17;4.73;;;23.70;49.70;;;;;;352428;28;977;-55
2023/09/30 00:03:37;;;;;;;6.93;4.47;;;23.70;49.70;;;;;;352406;28;968;-56
2023/09/30 00:03:48;;;;;;;6.78;4.65;;;23.70;49.70;;;;;;352442;28;883;-57
2023/09/30 00:03:59;;;;;;;7.20;4.70;;;23.70;49.70;;;;;;352433;28;1015;-56
2023/09/30 00:04:10;;;;;;;7.13;4.75;;;23.70;49.70;;;;;;352291;28;1047;-55
2023/09/30 00:04:21;;;;;;;6.70;4.47;;;23.70;49.70;;;;;;352407;28;1174;-55
2023/09/30 00:04:32;;;;;;;6.60;4.57;;;23.70;49.70;;;;;;352421;28;987;-55
2023/09/30 00:04:42;;;;;;;6.33;4.20;;;23.70;49.70;;;;;;352382;28;1014;-55
2023/09/30 00:04:53;;;;;;;6.28;4.05;;;23.70;49.70;;;;;;352329;28;1087;-56
2023/09/30 00:05:05;;;;;;;6.35;4.28;;;23.70;49.70;;;;;;352368;28;1639;-56
2023/09/30 00:05:19;;;;;;;6.60;4.70;;;23.70;49.70;;;;;;352376;28;1000;-56
2023/09/30 00:05:30;;;;;;;6.70;5.07;;;23.70;49.70;;;;;;352375;28;1066;-56
2023/09/30 00:05:40;;;;;;;6.72;4.97;;;23.70;49.70;;;;;;352477;28;876;-55
2023/09/30 00:05:51;;;;;;;6.47;4.83;;;23.70;49.70;;;;;;352353;28;979;-57
2023/09/30 00:06:03;;;;;;;7.03;4.75;;;23.70;49.70;;;;;;352440;28;1030;-55
2023/09/30 00:06:14;;;;;;;7.78;4.70;;;23.70;49.80;;;;;;352416;28;1027;-55
2023/09/30 00:06:24;;;;;;;8.13;4.80;;;23.70;49.80;;;;;;352302;28;973;-55
2023/09/30 00:06:35;;;;;;;7.07;4.90;;;23.70;49.80;;;;;;352415;28;991;-55
2023/09/30 00:06:46;;;;;;;7.07;5.15;;;23.70;49.80;;;;;;352372;28;912;-56
2023/09/30 00:06:57;;;;;;;8.00;5.10;;;23.70;49.80;;;;;;352294;28;1542;-57
2023/09/30 00:07:07;;;;;;;9.02;5.07;;;23.70;49.80;;;;;;352363;28;1111;-56
2023/09/30 00:07:18;;;;;;;9.27;4.97;;;23.70;49.80;;;;;;352444;28;951;-55
2023/09/30 00:07:29;;;;;;;8.52;5.07;;;23.70;49.80;;;;;;352277;28;1065;-55
2023/09/30 00:07:40;;;;;;;8.57;5.05;;;23.70;49.70;;;;;;352387;28;971;-56
2023/09/30 00:07:51;;;;;;;8.38;4.97;;;23.70;49.70;;;;;;352383;28;838;-57
2023/09/30 00:08:01;;;;;;;7.50;4.68;;;23.70;49.80;;;;;;352349;28;951;-56
2023/09/30 00:08:12;;;;;;;6.77;4.67;;;23.70;49.70;;;;;;352396;28;884;-56
2023/09/30 00:08:23;;;;;;;8.15;4.78;;;23.70;49.70;;;;;;352455;28;1037;-56
2023/09/30 00:08:33;;;;;;;8.40;4.90;;;23.70;49.70;;;;;;352442;28;852;-55
2023/09/30 00:08:45;;;;;;;7.22;4.75;;;23.70;49.70;;;;;;352379;28;1043;-56
2023/09/30 00:08:56;;;;;;;6.60;4.53;;;23.70;49.70;;;;;;352399;28;1138;-55
2023/09/30 00:09:07;;;;;;;6.50;4.35;;;23.70;49.70;;;;;;352443;28;861;-56
2023/09/30 00:09:18;;;;;;;7.05;4.65;;;23.70;49.70;;;;;;352411;28;976;-56
2023/09/30 00:09:28;;;;;;;7.57;4.80;;;23.70;49.70;;;;;;352290;28;1281;-56
2023/09/30 00:09:39;;;;;;;7.43;4.70;;;23.70;49.70;;;;;;352450;28;911;-57
2023/09/30 00:09:51;;;;;;;7.13;4.63;;;23.70;49.70;;;;;;352334;28;1012;-55
2023/09/30 00:10:03;;;;;;;7.13;4.63;;;23.70;49.70;;;;;;352417;28;1003;-57
2023/09/30 00:10:14;;;;;;;6.95;4.50;;;23.70;49.70;;;;;;352367;28;902;-56
2023/09/30 00:10:25;;;;;;;8.38;4.65;;;23.70;49.70;;;;;;352373;28;1058;-55
2023/09/30 00:10:36;;;;;;;8.23;4.50;;;23.70;49.70;;;;;;352423;28;1047;-56
2023/09/30 00:10:47;;;;;;;7.90;4.50;;;23.70;49.70;;;;;;352404;28;872;-57
2023/09/30 00:10:58;;;;;;;7.50;4.55;;;23.70;49.70;;;;;;352365;28;991;-57
2023/09/30 00:11:09;;;;;;;7.63;4.73;;;23.70;49.70;;;;;;352423;28;868;-56
2023/09/30 00:11:20;;;;;;;7.90;4.80;;;23.70;49.70;;;;;;352401;28;1023;-55
2023/09/30 00:11:31;;;;;;;8.60;4.57;;;23.70;49.70;;;;;;352370;28;888;-56
2023/09/30 00:11:41;;;;;;;9.88;4.47;;;23.70;49.70;;;;;;352365;28;1021;-56
2023/09/30 00:11:55;;;;;;;9.10;4.43;;;23.70;49.70;;;;;;352419;28;816;-55
2023/09/30 00:12:06;;;;;;;7.20;4.50;;;23.70;49.70;;;;;;352388;28;1252;-55
2023/09/30 00:12:17;;;;;;;8.55;4.55;;;23.70;49.70;;;;;;352406;28;1063;-56
2023/09/30 00:12:28;;;;;;;9.13;4.65;;;23.70;49.70;;;;;;352254;28;1118;-55
2023/09/30 00:12:39;;;;;;;8.40;4.40;;;23.70;49.70;;;;;;352340;28;1326;-56
2023/09/30 00:12:49;;;;;;;6.50;4.20;;;23.70;49.70;;;;;;352403;28;904;-55
2023/09/30 00:13:00;;;;;;;6.07;4.20;;;23.70;49.70;;;;;;352347;28;1087;-56
2023/09/30 00:13:11;;;;;;;6.68;4.50;;;23.70;49.70;;;;;;352331;28;1115;-55
2023/09/30 00:13:22;;;;;;;7.43;4.75;;;23.70;49.70;;;;;;352383;28;1043;-56
2023/09/30 00:13:33;;;;;;;8.43;4.70;;;23.70;49.70;;;;;;352413;28;1050;-55
2023/09/30 00:13:45;;;;;;;8.82;4.63;;;23.70;49.70;;;;;;352471;28;951;-56
2023/09/30 00:13:56;;;;;;;8.15;4.60;;;23.70;49.70;;;;;;352299;28;1134;-55
2023/09/30 00:14:07;;;;;;;7.15;4.70;;;23.70;49.70;;;;;;352367;28;1276;-56
2023/09/30 00:14:18;;;;;;;7.60;4.88;;;23.70;49.70;;;;;;352457;28;930;-55
2023/09/30 00:14:29;;;;;;;8.20;4.70;;;23.70;49.70;;;;;;352425;28;864;-55
2023/09/30 00:14:40;;;;;;;9.45;4.65;;;23.70;49.70;;;;;;352338;28;1333;-56
2023/09/30 00:14:50;;;;;;;9.02;4.45;;;23.70;49.70;;;;;;352354;28;1158;-56
2023/09/30 00:15:02;;;;;;;9.80;4.65;;;23.70;49.70;;;;;;352433;28;1065;-56
2023/09/30 00:15:13;;;;;;;8.02;4.70;;;23.70;49.70;;;;;;352424;28;964;-56
2023/09/30 00:15:23;;;;;;;8.50;4.80;;;23.70;49.70;;;;;;352376;28;862;-56
2023/09/30 00:15:34;;;;;;;7.63;4.57;;;23.70;49.70;;;;;;352408;28;984;-56
2023/09/30 00:15:45;;;;;;;8.02;4.70;;;23.70;49.70;;;;;;352431;28;984;-56
2023/09/30 00:15:56;;;;;;;8.10;4.80;;;23.70;49.80;;;;;;352381;28;1019;-57
2023/09/30 00:16:07;;;;;;;8.68;4.80;;;23.70;49.70;;;;;;352293;28;1012;-55
2023/09/30 00:16:18;;;;;;;8.63;4.90;;;23.70;49.80;;;;;;352338;28;1304;-56
2023/09/30 00:16:29;;;;;;;8.52;4.88;;;23.70;49.80;;;;;;352435;28;1098;-55
2023/09/30 00:16:39;;;;;;;7.55;4.80;;;23.70;49.80;;;;;;352443;28;978;-56
2023/09/30 00:16:50;;;;;;;8.05;4.93;;;23.70;49.80;;;;;;352268;28;1287;-56
2023/09/30 00:17:01;;;;;;;7.85;5.03;;;23.70;49.80;;;;;;352422;28;1015;-55
2023/09/30 00:17:12;;;;;;;8.47;4.97;;;23.70;49.80;;;;;;352392;28;1289;-56
2023/09/30 00:17:22;;;;;;;7.97;4.70;;;23.70;49.80;;;;;;352434;28;825;-55
2023/09/30 00:17:33;;;;;;;8.43;4.70;;;23.70;49.80;;;;;;352325;28;1581;-56
2023/09/30 00:17:45;;;;;;;7.50;4.63;;;23.70;49.80;;;;;;352431;28;904;-55
2023/09/30 00:17:55;;;;;;;8.10;4.65;;;23.70;49.80;;;;;;352396;28;1287;-56
2023/09/30 00:18:06;;;;;;;8.00;4.57;;;23.70;49.80;;;;;;352328;28;1561;-55
2023/09/30 00:18:17;;;;;;;9.53;4.60;;;23.60;49.80;;;;;;352301;28;1165;-56
2023/09/30 00:18:27;;;;;;;9.23;4.65;;;23.60;49.80;;;;;;352370;28;2005;-56
2023/09/30 00:18:38;;;;;;;8.88;4.60;;;23.70;49.80;;;;;;352397;28;1864;-56
2023/09/30 00:18:49;;;;;;;8.10;4.70;;;23.70;49.80;;;;;;352293;28;1022;-55
2023/09/30 00:19:02;;;;;;;7.53;4.67;;;23.70;49.80;;;;;;352350;28;980;-56
2023/09/30 00:19:13;;;;;;;6.30;4.63;;;23.60;49.80;;;;;;352390;28;1127;-56
2023/09/30 00:19:24;;;;;;;6.72;4.55;;;23.60;49.80;;;;;;352340;28;1115;-55
2023/09/30 00:19:34;;;;;;;6.97;4.77;;;23.70;49.80;;;;;;352368;28;1103;-55
2023/09/30 00:19:45;;;;;;;7.90;4.75;;;23.70;49.90;;;;;;352425;28;845;-55
2023/09/30 00:19:56;;;;;;;9.00;4.55;;;23.60;49.90;;;;;;352256;28;1452;-55
2023/09/30 00:20:08;;;;;;;9.27;4.32;;;23.70;49.90;;;;;;352450;28;840;-55
2023/09/30 00:20:18;;;;;;;9.05;4.57;;;23.60;49.90;;;;;;352402;28;1938;-55
2023/09/30 00:20:30;;;;;;;8.20;4.60;;;23.60;49.90;;;;;;352303;28;1102;-57
2023/09/30 00:20:40;;;;;;;7.45;4.53;;;23.60;49.90;;;;;;352410;28;1099;-55
2023/09/30 00:20:51;;;;;;;6.82;4.60;;;23.60;49.90;;;;;;352373;28;1167;-55
2023/09/30 00:21:02;;;;;;;5.95;4.47;;;23.70;50.00;;;;;;352355;28;1000;-56
2023/09/30 00:21:14;;;;;;;7.22;4.65;;;23.60;50.00;;;;;;352369;28;1144;-55
2023/09/30 00:21:25;;;;;;;8.07;4.40;;;23.70;50.00;;;;;;352393;28;1117;-55
2023/09/30 00:21:36;;;;;;;10.07;4.70;;;23.60;50.00;;;;;;352356;28;1003;-55
2023/09/30 00:21:48;;;;;;;8.20;4.68;;;23.60;50.00;;;;;;352360;28;1158;-56
2023/09/30 00:22:00;;;;;;;8.50;4.90;;;23.60;50.00;;;;;;352429;28;987;-57
2023/09/30 00:22:10;;;;;;;8.18;4.72;;;23.60;50.00;;;;;;352345;28;1037;-56
2023/09/30 00:22:21;;;;;;;8.00;4.87;;;23.60;50.00;;;;;;352416;28;1137;-56
2023/09/30 00:22:32;;;;;;;9.13;5.10;;;23.60;50.00;;;;;;352330;28;1423;-55
2023/09/30 00:22:43;;;;;;;8.23;5.00;;;23.60;50.00;;;;;;352392;28;855;-56
2023/09/30 00:22:54;;;;;;;7.82;4.63;;;23.60;50.00;;;;;;352396;28;975;-55
2023/09/30 00:23:06;;;;;;;7.30;4.50;;;23.60;50.00;;;;;;352370;28;1475;-56
2023/09/30 00:23:16;;;;;;;7.05;4.30;;;23.60;50.10;;;;;;352271;28;1932;-57
2023/09/30 00:23:27;;;;;;;7.32;4.57;;;23.60;50.10;;;;;;352416;28;1015;-56
2023/09/30 00:23:38;;;;;;;7.13;4.73;;;23.60;50.10;;;;;;352405;28;1099;-57
2023/09/30 00:23:49;;;;;;;7.18;4.75;;;23.60;50.10;;;;;;352273;28;1074;-55
2023/09/30 00:23:59;;;;;;;6.47;4.60;;;23.60;50.00;;;;;;352411;28;1792;-56
2023/09/30 00:24:10;;;;;;;6.80;4.50;;;23.60;50.00;;;;;;352399;28;1083;-56
2023/09/30 00:24:21;;;;;;;7.82;4.50;;;23.60;50.10;;;;;;352315;28;929;-57
2023/09/30 00:24:32;;;;;;;7.57;4.40;;;23.60;50.10;;;;;;352366;28;1078;-56
2023/09/30 00:24:42;;;;;;;7.72;4.40;;;23.60;50.10;;;;;;352312;28;1391;-56
2023/09/30 00:24:53;;;;;;;7.07;4.57;;;23.60;50.10;;;;;;352219;28;1719;-57
2023/09/30 00:25:05;;;;;;;7.45;4.90;;;23.60;50.00;;;;;;352375;28;1078;-56
2023/09/30 00:25:15;;;;;;;7.03;4.72;;;23.60;50.10;;;;;;352417;28;957;-56
2023/09/30 00:25:27;;;;;;;8.30;4.65;;;23.60;50.10;;;;;;352332;28;909;-56
2023/09/30 00:25:39;;;;;;;8.32;4.60;;;23.60;50.10;;;;;;352382;28;967;-56
2023/09/30 00:25:50;;;;;;;8.27;4.85;;;23.60;50.10;;;;;;352330;28;892;-56
2023/09/30 00:26:01;;;;;;;8.95;5.03;;;23.60;50.10;;;;;;352410;28;920;-56
2023/09/30 00:26:11;;;;;;;9.15;4.93;;;23.60;50.10;;;;;;352380;28;928;-55
2023/09/30 00:26:22;;;;;;;8.32;5.03;;;23.60;50.10;;;;;;352350;28;1031;-55
2023/09/30 00:26:33;;;;;;;7.40;4.97;;;23.60;50.10;;;;;;352429;28;832;-55
2023/09/30 00:26:43;;;;;;;6.60;4.90;;;23.60;50.10;;;;;;352341;28;1098;-55
2023/09/30 00:26:54;;;;;;;5.93;4.45;;;23.60;50.20;;;;;;352253;28;1154;-56
2023/09/30 00:27:05;;;;;;;6.53;4.55;;;23.60;50.10;;;;;;352460;28;814;-56
2023/09/30 00:27:16;;;;;;;6.50;4.45;;;23.60;50.20;;;;;;352371;28;1177;-56
2023/09/30 00:27:26;;;;;;;7.83;4.67;;;23.60;50.20;;;;;;352226;28;1154;-56
2023/09/30 00:27:37;;;;;;;7.53;4.50;;;23.60;50.20;;;;;;352411;28;816;-56
2023/09/30 00:27:48;;;;;;;9.07;4.50;;;23.60;50.20;;;;;;352395;28;797;-55
2023/09/30 00:27:59;;;;;;;7.82;4.32;;;23.60;50.20;;;;;;352357;28;907;-55
2023/09/30 00:28:10;;;;;;;7.63;4.45;;;23.60;50.20;;;;;;352372;28;1070;-55
2023/09/30 00:28:20;;;;;;;7.32;4.50;;;23.60;50.20;;;;;;352436;28;1011;-56
2023/09/30 00:28:31;;;;;;;9.03;4.60;;;23.60;50.20;;;;;;352321;28;1094;-55
2023/09/30 00:28:42;;;;;;;10.20;4.70;;;23.60;50.20;;;;;;352460;28;974;-55
2023/09/30 00:28:53;;;;;;;10.18;4.93;;;23.60;50.20;;;;;;352360;28;895;-56
2023/09/30 00:29:04;;;;;;;8.65;5.00;;;23.60;50.20;;;;;;352379;28;1118;-56
2023/09/30 00:29:15;;;;;;;7.07;5.05;;;23.60;50.20;;;;;;352262;28;1130;-56
2023/09/30 00:29:26;;;;;;;7.35;5.10;;;23.60;50.20;;;;;;352372;28;2621;-55
2023/09/30 00:29:37;;;;;;;7.20;4.90;;;23.60;50.20;;;;;;352420;28;915;-56
2023/09/30 00:29:48;;;;;;;8.00;4.85;;;23.60;50.20;;;;;;352332;28;890;-56
2023/09/30 00:29:58;;;;;;;8.23;5.00;;;23.60;50.30;;;;;;352354;28;1110;-55
2023/09/30 00:30:09;;;;;;;8.87;5.10;;;23.60;50.30;;;;;;352435;28;788;-55
2023/09/30 00:30:21;;;;;;;8.52;4.80;;;23.50;50.20;;;;;;352296;28;991;-56
2023/09/30 00:30:32;;;;;;;7.25;4.32;;;23.60;50.20;;;;;;352407;28;1032;-56
2023/09/30 00:30:46;;;;;;;9.05;4.93;;;23.60;50.30;;;;;;352338;28;1450;-56
2023/09/30 00:30:57;;;;;;;9.23;5.15;;;23.50;50.30;;;;;;352318;28;1046;-56
2023/09/30 00:31:11;;;;;;;7.78;4.80;;;23.50;50.30;;;;;;352394;28;881;-56
2023/09/30 00:31:22;;;;;;;9.20;5.00;;;23.50;50.30;;;;;;352388;28;1042;-56
2023/09/30 00:31:33;;;;;;;8.07;4.88;;;23.60;50.30;;;;;;352344;28;1022;-56
2023/09/30 00:31:44;;;;;;;7.45;4.82;;;23.50;50.40;;;;;;352369;28;1157;-56
2023/09/30 00:31:54;;;;;;;7.78;4.75;;;23.50;50.40;;;;;;352331;28;1061;-56
2023/09/30 00:32:05;;;;;;;8.60;4.63;;;23.50;50.40;;;;;;352278;28;1227;-55
2023/09/30 00:32:16;;;;;;;7.93;4.47;;;23.50;50.40;;;;;;352438;28;949;-56
2023/09/30 00:32:26;;;;;;;6.40;4.28;;;23.50;50.40;;;;;;352476;28;891;-56
2023/09/30 00:32:39;;;;;;;6.03;4.45;;;23.50;50.40;;;;;;352422;28;1857;-57
2023/09/30 00:32:50;;;;;;;6.43;4.53;;;23.50;50.40;;;;;;352289;28;1982;-56
2023/09/30 00:33:00;;;;;;;7.78;4.57;;;23.50;50.40;;;;;;352355;28;1075;-56
2023/09/30 00:33:11;;;;;;;8.10;4.43;;;23.50;50.40;;;;;;352446;28;820;-55
2023/09/30 00:33:22;;;;;;;9.10;4.30;;;23.50;50.40;;;;;;352320;28;892;-56
2023/09/30 00:33:32;;;;;;;7.85;4.38;;;23.50;50.30;;;;;;352418;28;952;-55
2023/09/30 00:33:43;;;;;;;6.93;4.25;;;23.50;50.30;;;;;;352364;28;2023;-56
2023/09/30 00:33:54;;;;;;;5.68;3.97;;;23.50;50.30;;;;;;352304;28;1034;-55
2023/09/30 00:34:05;;;;;;;6.57;4.30;;;23.50;50.30;;;;;;352416;28;1214;-55
2023/09/30 00:34:16;;;;;;;7.47;4.73;;;23.50;50.30;;;;;;352427;28;974;-55
2023/09/30 00:34:26;;;;;;;8.37;4.90;;;23.50;50.30;;;;;;352303;28;1038;-56
2023/09/30 00:34:37;;;;;;;8.90;4.55;;;23.50;50.30;;;;;;352407;28;1006;-56
2023/09/30 00:34:48;;;;;;;7.97;4.30;;;23.50;50.30;;;;;;352361;28;1041;-57
2023/09/30 00:35:01;;;;;;;7.22;4.20;;;23.50;50.30;;;;;;352299;28;1006;-56
2023/09/30 00:35:12;;;;;;;6.47;4.30;;;23.50;50.20;;;;;;352404;28;934;-56
2023/09/30 00:35:23;;;;;;;8.20;4.32;;;23.50;50.20;;;;;;352110;28;1379;-55
2023/09/30 00:35:33;;;;;;;8.60;4.40;;;23.50;50.20;;;;;;352368;28;1177;-56
2023/09/30 00:35:44;;;;;;;8.05;4.50;;;23.50;50.20;;;;;;352360;28;1579;-57
2023/09/30 00:35:54;;;;;;;7.82;4.70;;;23.50;50.20;;;;;;352315;28;937;-55
2023/09/30 00:36:12;;;;;;;8.17;4.77;;;23.60;50.20;;;;;;352444;28;871;-57
2023/09/30 00:36:22;;;;;;;10.55;4.68;;;23.50;50.20;;;;;;352306;28;1042;-58
2023/09/30 00:36:33;;;;;;;10.57;4.82;;;23.50;50.20;;;;;;352335;28;1235;-57
2023/09/30 00:36:44;;;;;;;8.00;4.60;;;23.50;50.20;;;;;;352408;28;1030;-56
2023/09/30 00:36:55;;;;;;;7.25;4.63;;;23.50;50.10;;;;;;352223;28;1114;-56
2023/09/30 00:37:05;;;;;;;7.82;4.68;;;23.50;50.20;;;;;;352357;28;1198;-56
2023/09/30 00:37:16;;;;;;;8.13;4.73;;;23.50;50.20;;;;;;352385;28;975;-56
2023/09/30 00:37:27;;;;;;;7.30;4.70;;;23.50;50.20;;;;;;352315;28;917;-55
2023/09/30 00:37:38;;;;;;;7.18;4.43;;;23.50;50.20;;;;;;352410;28;908;-56
2023/09/30 00:37:49;;;;;;;7.72;4.38;;;23.60;50.20;;;;;;352376;28;1042;-55
2023/09/30 00:38:00;;;;;;;8.75;4.55;;;23.50;50.20;;;;;;352318;28;1014;-56
2023/09/30 00:38:10;;;;;;;10.25;4.70;;;23.50;50.20;;;;;;352428;28;880;-55
2023/09/30 00:38:23;;;;;;;10.65;4.88;;;23.50;50.20;;;;;;352286;28;1967;-56
2023/09/30 00:38:34;;;;;;;10.10;4.47;;;23.50;50.30;;;;;;352283;28;1261;-55
2023/09/30 00:38:45;;;;;;;8.20;4.68;;;23.50;50.20;;;;;;352338;28;1130;-56
2023/09/30 00:38:56;;;;;;;8.43;4.60;;;23.50;50.20;;;;;;352365;28;986;-55
2023/09/30 00:39:08;;;;;;;6.80;4.57;;;23.50;50.20;;;;;;352423;28;1034;-56
2023/09/30 00:39:18;;;;;;;6.57;4.30;;;23.50;50.20;;;;;;352303;28;1126;-56
2023/09/30 00:39:30;;;;;;;7.30;4.33;;;23.50;50.30;;;;;;352338;28;1173;-55
2023/09/30 00:39:41;;;;;;;8.45;4.82;;;23.50;50.20;;;;;;352401;28;995;-56
2023/09/30 00:39:51;;;;;;;10.00;4.93;;;23.50;50.20;;;;;;352323;28;1006;-56
2023/09/30 00:40:03;;;;;;;9.68;4.97;;;23.50;50.20;;;;;;352399;28;1979;-57
2023/09/30 00:40:14;;;;;;;7.50;4.55;;;23.50;50.20;;;;;;352379;28;1027;-56
2023/09/30 00:40:25;;;;;;;7.20;4.40;;;23.50;50.20;;;;;;352318;28;970;-57
2023/09/30 00:40:36;;;;;;;7.40;4.45;;;23.50;50.20;;;;;;352364;28;1442;-55
2023/09/30 00:40:48;;;;;;;8.00;4.57;;;23.50;50.20;;;;;;352331;28;1113;-56
2023/09/30 00:40:59;;;;;;;7.35;4.60;;;23.50;50.30;;;;;;352306;28;982;-56
2023/09/30 00:41:10;;;;;;;7.43;4.72;;;23.50;50.20;;;;;;352347;28;1110;-56
2023/09/30 00:41:20;;;;;;;8.90;4.87;;;23.50;50.20;;;;;;352328;28;995;-55
2023/09/30 00:41:31;;;;;;;8.55;4.82;;;23.50;50.30;;;;;;352405;28;1010;-56
2023/09/30 00:41:42;;;;;;;7.30;4.50;;;23.50;50.30;;;;;;352378;28;1709;-55
2023/09/30 00:41:54;;;;;;;5.75;4.30;;;23.50;50.30;;;;;;352313;28;1142;-57
2023/09/30 00:42:05;;;;;;;6.28;4.60;;;23.50;50.30;;;;;;352382;28;1078;-55
2023/09/30 00:42:15;;;;;;;7.15;4.55;;;23.50;50.30;;;;;;352370;28;969;-56
2023/09/30 00:42:27;;;;;;;7.93;4.68;;;23.50;50.30;;;;;;352335;28;1166;-55
2023/09/30 00:42:38;;;;;;;8.07;4.45;;;23.50;50.30;;;;;;352381;28;1082;-56
2023/09/30 00:42:49;;;;;;;7.35;4.45;;;23.40;50.30;;;;;;352211;28;1102;-57
2023/09/30 00:43:00;;;;;;;6.90;4.53;;;23.50;50.30;;;;;;352410;28;828;-56
2023/09/30 00:43:18;;;;;;;6.70;4.57;;;23.50;50.30;;;;;;352336;28;1332;-56
2023/09/30 00:43:29;;;;;;;7.70;4.65;;;23.50;50.30;;;;;;352400;28;861;-56
2023/09/30 00:43:41;;;;;;;7.75;4.55;;;23.50;50.30;;;;;;352277;28;1311;-54
2023/09/30 00:43:51;;;;;;;7.15;4.30;;;23.50;50.30;;;;;;352348;28;1043;-56
2023/09/30 00:44:03;;;;;;;7.72;4.30;;;23.50;50.40;;;;;;352357;28;1086;-56
2023/09/30 00:44:13;;;;;;;8.10;4.35;;;23.40;50.30;;;;;;352348;28;1737;-56
2023/09/30 00:44:27;;;;;;;8.68;4.40;;;23.50;50.40;;;;;;352407;28;832;-54
2023/09/30 00:44:38;;;;;;;6.93;4.38;;;23.50;50.40;;;;;;352349;28;906;-55
2023/09/30 00:44:48;;;;;;;7.05;4.68;;;23.50;50.40;;;;;;352383;28;1205;-55
2023/09/30 00:44:59;;;;;;;6.57;4.67;;;23.40;50.40;;;;;;352425;28;1018;-56
2023/09/30 00:45:10;;;;;;;6.75;4.63;;;23.50;50.40;;;;;;352378;28;1149;-55
2023/09/30 00:45:21;;;;;;;7.38;4.55;;;23.50;50.40;;;;;;352376;28;1346;-57
2023/09/30 00:45:32;;;;;;;7.82;4.50;;;23.40;50.40;;;;;;352280;28;1106;-56
2023/09/30 00:45:43;;;;;;;8.15;4.55;;;23.40;50.40;;;;;;352360;28;1201;-55
2023/09/30 00:46:13;;;;;;;8.23;4.72;;;23.50;50.40;;;;;;352325;28;1110;-55
2023/09/30 00:46:29;;;;;;;7.60;4.45;;;23.50;50.50;;;;;;352286;28;910;-55
2023/09/30 00:46:41;;;;;;;6.38;4.60;;;23.50;50.60;;;;;;352409;28;1038;-55
2023/09/30 00:46:53;;;;;;;7.13;4.70;;;23.40;50.50;;;;;;352373;28;1124;-55
2023/09/30 00:47:04;;;;;;;7.68;4.45;;;23.40;50.60;;;;;;352362;28;876;-56
2023/09/30 00:47:15;;;;;;;7.65;4.50;;;23.40;50.60;;;;;;352296;28;1003;-55
2023/09/30 00:47:26;;;;;;;6.97;4.50;;;23.40;50.60;;;;;;352371;28;1138;-56
2023/09/30 00:47:37;;;;;;;7.50;4.82;;;23.40;50.60;;;;;;352412;28;1850;-55
2023/09/30 00:47:48;;;;;;;7.03;4.88;;;23.40;50.60;;;;;;352347;28;991;-56
2023/09/30 00:47:59;;;;;;;9.18;5.03;;;23.40;50.60;;;;;;352422;28;875;-56
2023/09/30 00:48:10;;;;;;;8.85;4.88;;;23.40;50.70;;;;;;352317;28;1026;-57
2023/09/30 00:48:21;;;;;;;9.55;5.15;;;23.40;50.60;;;;;;352410;28;971;-55
2023/09/30 00:48:34;;;;;;;8.00;5.18;;;23.40;50.70;;;;;;352387;28;1019;-56
2023/09/30 00:48:45;;;;;;;7.75;5.30;;;23.40;50.70;;;;;;352348;28;983;-55
2023/09/30 00:48:58;;;;;;;7.80;5.30;;;23.40;50.70;;;;;;352281;28;954;-55
2023/09/30 00:49:10;;;;;;;7.88;5.20;;;23.40;50.70;;;;;;352312;28;1114;-54
2023/09/30 00:49:22;;;;;;;7.72;5.20;;;23.40;50.70;;;;;;352396;28;1062;-56
2023/09/30 00:49:33;;;;;;;7.88;5.00;;;23.40;50.70;;;;;;352361;28;1142;-55
2023/09/30 00:49:44;;;;;;;9.65;5.13;;;23.40;50.70;;;;;;352297;28;907;-55
2023/09/30 00:49:55;;;;;;;9.63;5.25;;;23.40;50.70;;;;;;352333;28;1083;-57
2023/09/30 00:50:08;;;;;;;9.55;5.60;;;23.40;50.70;;;;;;352407;28;1113;-56
2023/09/30 00:50:20;;;;;;;7.80;5.45;;;23.40;50.70;;;;;;352374;28;1026;-55
2023/09/30 00:50:31;;;;;;;8.60;5.30;;;23.40;50.70;;;;;;352278;28;1103;-56
2023/09/30 00:50:42;;;;;;;9.05;5.35;;;23.40;50.70;;;;;;352423;28;958;-56
2023/09/30 00:50:53;;;;;;;10.25;5.60;;;23.40;50.70;;;;;;352367;28;999;-57
2023/09/30 00:51:04;;;;;;;9.30;5.50;;;23.40;50.70;;;;;;352367;28;1776;-55
2023/09/30 00:51:15;;;;;;;9.02;5.25;;;23.40;50.70;;;;;;352284;28;1050;-55
2023/09/30 00:51:26;;;;;;;8.57;4.70;;;23.40;50.70;;;;;;352332;28;1193;-55
2023/09/30 00:51:37;;;;;;;9.38;4.68;;;23.40;50.70;;;;;;352374;28;888;-56
2023/09/30 00:51:49;;;;;;;7.90;4.60;;;23.30;50.70;;;;;;352345;28;1799;-55
2023/09/30 00:52:01;;;;;;;7.60;4.78;;;23.40;50.70;;;;;;352326;28;1027;-56
2023/09/30 00:52:13;;;;;;;7.68;5.22;;;23.40;50.70;;;;;;352373;28;1443;-55
2023/09/30 00:52:23;;;;;;;7.97;5.75;;;23.40;50.70;;;;;;352411;28;912;-56
2023/09/30 00:52:36;;;;;;;7.87;5.77;;;23.40;50.70;;;;;;352413;28;840;-55
2023/09/30 00:52:48;;;;;;;8.52;5.90;;;23.30;50.60;;;;;;352319;28;1082;-55
2023/09/30 00:52:59;;;;;;;9.70;6.22;;;23.40;50.60;;;;;;352377;28;1097;-55
2023/09/30 00:53:10;;;;;;;9.52;6.25;;;23.40;50.70;;;;;;352394;28;1018;-56
2023/09/30 00:53:21;;;;;;;9.05;5.72;;;23.30;50.70;;;;;;352353;28;1193;-55
2023/09/30 00:53:32;;;;;;;9.30;5.35;;;23.30;50.60;;;;;;352282;28;1046;-55
2023/09/30 00:53:43;;;;;;;8.40;5.30;;;23.30;50.60;;;;;;352334;28;1133;-56
2023/09/30 00:53:58;;;;;;;8.38;5.50;;;23.40;50.70;;;;;;352378;28;899;-55
2023/09/30 00:54:09;;;;;;;6.85;5.13;;;23.40;50.70;;;;;;352373;28;943;-56
2023/09/30 00:54:22;;;;;;;7.05;4.80;;;23.30;50.70;;;;;;352671;28;995;-56
2023/09/30 00:54:33;;;;;;;7.80;4.97;;;23.40;50.70;;;;;;352615;28;927;-56
2023/09/30 00:54:44;;;;;;;9.45;5.15;;;23.40;50.70;;;;;;352581;28;1186;-55
2023/09/30 00:54:55;;;;;;;8.43;4.75;;;23.40;50.70;;;;;;352536;28;886;-56
2023/09/30 00:55:08;;;;;;;7.93;4.40;;;23.30;50.70;;;;;;352649;28;998;-55
2023/09/30 00:55:20;;;;;;;6.93;4.20;;;23.40;50.70;;;;;;352646;28;862;-56
2023/09/30 00:55:30;;;;;;;6.95;4.20;;;23.30;50.70;;;;;;352683;28;931;-55
2023/09/30 00:55:41;;;;;;;6.25;4.32;;;23.30;50.70;;;;;;352510;28;1559;-55
2023/09/30 00:55:54;;;;;;;6.25;4.63;;;23.40;50.70;;;;;;352642;28;983;-56
2023/09/30 00:56:05;;;;;;;6.28;4.53;;;23.40;50.70;;;;;;352648;28;960;-55
2023/09/30 00:56:18;;;;;;;6.18;4.25;;;23.30;50.70;;;;;;352664;28;1010;-56
2023/09/30 00:56:30;;;;;;;6.97;4.25;;;23.30;50.70;;;;;;352563;28;1057;-56
2023/09/30 00:56:48;;;;;;;8.07;4.50;;;23.30;50.70;;;;;;352645;28;1007;-56
2023/09/30 00:57:00;;;;;;;7.47;4.57;;;23.30;50.80;;;;;;352604;28;1122;-56
2023/09/30 00:57:12;;;;;;;8.13;4.53;;;23.40;50.80;;;;;;352573;28;1008;-55
2023/09/30 00:57:24;;;;;;;8.32;4.38;;;23.30;50.80;;;;;;352612;28;1098;-56
2023/09/30 00:57:37;;;;;;;9.38;4.40;;;23.30;50.80;;;;;;352635;28;828;-56
2023/09/30 00:57:48;;;;;;;9.82;4.50;;;23.30;50.80;;;;;;352471;28;1703;-55
2023/09/30 00:57:59;;;;;;;10.15;4.53;;;23.30;50.90;;;;;;352681;28;832;-56
2023/09/30 00:58:10;;;;;;;9.57;4.40;;;23.30;50.90;;;;;;352621;28;1066;-56
2023/09/30 00:58:21;;;;;;;8.05;4.35;;;23.40;50.90;;;;;;352546;28;1913;-55
2023/09/30 00:58:34;;;;;;;7.53;4.22;;;23.40;50.90;;;;;;352563;28;1525;-56
2023/09/30 00:58:47;;;;;;;7.38;4.30;;;23.40;50.90;;;;;;352652;28;1042;-57
2023/09/30 00:58:58;;;;;;;7.53;4.57;;;23.30;50.90;;;;;;352607;27;976;-55
2023/09/30 00:59:09;;;;;;;8.25;4.75;;;23.30;50.90;;;;;;352656;28;975;-55
2023/09/30 00:59:20;;;;;;;9.20;4.93;;;23.30;50.90;;;;;;352619;27;899;-56
2023/09/30 00:59:32;;;;;;;10.25;4.80;;;23.40;50.90;;;;;;352658;28;919;-56
2023/09/30 00:59:43;;;;;;;9.77;4.55;;;23.30;50.90;;;;;;352669;28;1098;-55
2023/09/30 00:59:54;;;;;;;9.18;4.38;;;23.30;50.80;;;;;;352592;28;1161;-57
2023/09/30 01:00:06;;;;;;;7.05;4.20;;;23.30;50.80;;;;;;352584;27;963;-56
2023/09/30 01:00:17;;;;;;;6.60;4.03;;;23.30;50.80;;;;;;352688;28;919;-56
2023/09/30 01:00:28;;;;;;;6.63;4.18;;;23.40;50.80;;;;;;352626;28;908;-56